OISY

Details ICAO OISY (YES)
Name YASOUJ
Region Iran
Timezone Asia/Tehran (UTC+3.5)
Plans Departing 1
Arriving 2
Stats Elevation 5,939 ft / 1,810 m (AMSL)
Location 30.700477° 51.545094°
Runways 1
Magnetic Variation 3.506° E
Sunrise 2017-12-15 03:25:07 UTC / 2017-12-15 06:55:07 Local
Sunset 2017-12-15 13:35:29 UTC / 2017-12-15 17:05:29 Local
Advertisement - Login to hide

Runways

ID Width Length Bearing (true) Bearing (mag) Surface Threshold Offset Overrun Length
13 148 ft / 45 m 8,527 ft / 2,599 m 132.60° 129.09° Asphalt 0 ft / 0 m 465 ft / 142 m
31 148 ft / 45 m 8,527 ft / 2,599 m 312.62° 309.11° Asphalt 0 ft / 0 m 675 ft / 206 m

Map

Weather


0- 5 10 15 20 25 30 35+ Temperature / ° C

Clouds and Precipitation
Forecast for 2017-12-16 00:00 UTC. Updated 44 minutes ago

Ground ~20,000 ft ~40,000 ft Winds

METAR

OISY 152000Z 00000KT 9999 SCT040 BKN080 04/03 Q1021

TAF

Not found

Frequencies

Tower 121.80 MHz AFIS
Tower 123.75 MHz AFIS
Warning: Do not use this data for real-world aviation or navigation. No guarantee of current accuracy is given.